Time;durP1;ratioP1;P1;durP2;ratioP2;P2;SDS_P1;SDS_P2;PMS_P1;PMS_P2;Temp;Humidity;BMP_temperature;BMP_pressure;BME280_temperature;BME280_humidity;BME280_pressure;Samples;Min_cycle;Max_cycle;Signal;HPM_P1;HPM_P2
2023/06/12 00:00:52;;;;;;;5.20;4.70;;;17.60;48.20;;;-147.95;100.00;61948.03;5027093;28;20565;-71
2023/06/12 00:03:21;;;;;;;4.60;4.20;;;17.60;48.40;;;-147.95;100.00;61948.03;5011286;28;20486;-71
2023/06/12 00:05:48;;;;;;;5.97;5.43;;;17.60;48.50;;;-147.95;100.00;61948.03;5009994;28;20494;-72
2023/06/12 00:08:17;;;;;;;5.17;4.63;;;17.60;48.70;;;-147.95;100.00;61948.03;5027229;28;21016;-70
2023/06/12 00:10:46;;;;;;;5.37;4.63;;;17.50;48.70;;;-147.95;100.00;61948.03;5028425;28;20459;-71
2023/06/12 00:13:15;;;;;;;5.37;4.87;;;17.50;48.90;;;-147.95;100.00;61948.03;5010846;28;20525;-71
2023/06/12 00:15:42;;;;;;;5.10;4.57;;;17.50;49.00;;;-147.95;100.00;61948.03;5010227;28;20466;-71
2023/06/12 00:18:12;;;;;;;5.17;4.67;;;17.50;49.10;;;-147.95;100.00;61948.03;5010539;28;20463;-72
2023/06/12 00:20:39;;;;;;;7.53;4.60;;;17.50;49.30;;;-147.95;100.00;61948.03;5010267;28;20959;-71
2023/06/12 00:23:10;;;;;;;5.77;5.03;;;17.40;49.40;;;-147.95;100.00;61948.03;5010830;28;20849;-71
2023/06/12 00:25:37;;;;;;;5.67;5.13;;;17.30;49.50;;;-147.95;100.00;61948.03;5026570;28;20496;-71
2023/06/12 00:28:05;;;;;;;5.33;4.83;;;17.30;49.70;;;-147.95;100.00;61948.03;5027954;28;20462;-70
2023/06/12 00:30:32;;;;;;;6.10;4.93;;;17.30;49.80;;;-147.95;100.00;61948.03;5026444;28;20465;-71
2023/06/12 00:33:00;;;;;;;5.30;4.80;;;17.30;50.00;;;-147.95;100.00;61948.03;5028386;28;20454;-71
2023/06/12 00:35:29;;;;;;;5.60;5.00;;;17.20;50.10;;;-147.95;100.00;61948.03;5009934;28;20473;-71
2023/06/12 00:37:56;;;;;;;6.20;5.20;;;17.20;50.30;;;-147.95;100.00;61948.03;5019801;28;20474;-71
2023/06/12 00:40:23;;;;;;;5.20;4.70;;;17.20;50.40;;;-147.95;100.00;61948.03;4993990;28;20463;-71
2023/06/12 00:42:52;;;;;;;5.40;4.90;;;17.20;50.50;;;-147.95;100.00;61948.03;5026841;28;20466;-71
2023/06/12 00:45:22;;;;;;;5.40;4.90;;;17.10;50.60;;;-147.95;100.00;61948.03;5009858;28;20941;-71
2023/06/12 00:47:53;;;;;;;6.60;5.80;;;17.10;50.80;;;-147.95;100.00;61948.03;5027642;28;20458;-71
2023/06/12 00:50:25;;;;;;;5.60;5.00;;;17.10;50.90;;;-147.95;100.00;61948.03;5026404;28;20457;-71
2023/06/12 00:52:57;;;;;;;5.73;4.90;;;17.00;51.10;;;-147.95;100.00;61948.03;5027512;28;20533;-69
2023/06/12 00:55:25;;;;;;;4.80;4.40;;;17.00;51.40;;;-147.95;100.00;61948.03;5009850;28;20521;-72
2023/06/12 00:57:52;;;;;;;6.33;5.40;;;16.90;51.50;;;-147.95;100.00;61948.03;5009436;28;20458;-71
2023/06/12 01:00:20;;;;;;;4.60;4.20;;;16.90;51.60;;;-147.95;100.00;61948.03;5026273;28;20544;-71
2023/06/12 01:02:52;;;;;;;5.90;5.30;;;16.90;51.90;;;-147.95;100.00;61948.03;5010038;28;20454;-72
2023/06/12 01:05:22;;;;;;;5.80;4.87;;;16.80;52.00;;;-147.95;100.00;61948.03;5026833;28;20478;-70
2023/06/12 01:07:58;;;;;;;5.40;4.90;;;16.80;52.20;;;-147.95;100.00;61948.03;5026785;28;20466;-71
2023/06/12 01:10:30;;;;;;;5.40;4.90;;;16.80;52.50;;;-147.95;100.00;61948.03;5009639;28;20527;-70
2023/06/12 01:13:00;;;;;;;5.70;5.20;;;16.70;52.70;;;-147.95;100.00;61948.03;5002314;28;20514;-71
2023/06/12 01:15:28;;;;;;;5.30;4.43;;;16.70;52.80;;;-147.95;100.00;61948.03;5023595;28;20498;-71
2023/06/12 01:17:58;;;;;;;5.70;4.90;;;16.70;52.90;;;-147.95;100.00;61948.03;5026032;28;20547;-72
2023/06/12 01:20:26;;;;;;;6.10;5.50;;;16.70;53.20;;;-147.95;100.00;61948.03;5007138;28;20477;-71
2023/06/12 01:23:00;;;;;;;5.33;4.83;;;16.60;53.20;;;-147.95;100.00;61948.03;5029059;28;20552;-72
2023/06/12 01:26:11;;;;;;;6.13;5.53;;;16.60;53.40;;;-147.95;100.00;61948.03;5029233;28;21079;-70
2023/06/12 01:29:24;;;;;;;6.90;6.20;;;16.60;53.70;;;-147.95;100.00;61948.03;5010327;28;20461;-71
2023/06/12 01:32:02;;;;;;;5.90;5.40;;;16.50;53.80;;;-147.95;100.00;61948.03;5018105;28;20957;-72
2023/06/12 01:34:38;;;;;;;5.80;5.30;;;16.60;54.10;;;-147.95;100.00;61948.03;5028934;28;21091;-71
2023/06/12 01:37:21;;;;;;;6.47;5.30;;;16.60;54.50;;;-147.95;100.00;61948.03;5020381;28;20477;-71
2023/06/12 01:39:56;;;;;;;5.23;4.53;;;16.60;54.20;;;-147.95;100.00;61948.03;5028408;28;20455;-70
2023/06/12 01:42:26;;;;;;;5.10;4.60;;;16.70;54.40;;;-147.95;100.00;61948.03;5010555;28;20531;-71
2023/06/12 01:44:54;;;;;;;5.27;4.77;;;16.60;54.40;;;-147.95;100.00;61948.03;5010034;28;20468;-70
2023/06/12 01:47:24;;;;;;;6.00;4.70;;;16.60;54.70;;;-147.95;100.00;61948.03;5024969;28;20455;-70
2023/06/12 01:49:51;;;;;;;5.80;5.20;;;16.60;54.90;;;-147.95;100.00;61948.03;5027856;28;20497;-70
2023/06/12 01:52:19;;;;;;;6.10;5.50;;;16.50;55.00;;;-147.95;100.00;61948.03;5027275;28;21021;-71
2023/06/12 01:54:48;;;;;;;5.30;4.80;;;16.50;55.20;;;-147.95;100.00;61948.03;5029107;28;20450;-71
2023/06/12 01:57:19;;;;;;;6.13;5.47;;;16.40;55.40;;;-147.95;100.00;61948.03;5022357;28;20501;-71
2023/06/12 01:59:47;;;;;;;5.30;4.60;;;16.40;55.60;;;-147.95;100.00;61948.03;5027790;28;20832;-71
2023/06/12 02:02:14;;;;;;;5.30;4.80;;;16.30;55.70;;;-147.95;100.00;61948.03;5008940;28;20977;-70
2023/06/12 02:04:43;;;;;;;6.03;5.30;;;16.30;55.90;;;-147.95;100.00;61948.03;5026896;28;20472;-71
2023/06/12 02:07:11;;;;;;;5.60;5.10;;;16.30;56.10;;;-147.95;100.00;61948.03;5024821;28;20993;-71
2023/06/12 02:09:38;;;;;;;7.37;6.03;;;16.20;56.10;;;-147.95;100.00;61948.03;5025665;28;20501;-72
2023/06/12 02:12:07;;;;;;;6.37;5.57;;;16.20;56.30;;;-147.95;100.00;61948.03;5008303;28;20959;-70
2023/06/12 02:14:34;;;;;;;6.30;5.70;;;16.10;56.50;;;-147.95;100.00;61948.03;5025471;28;20461;-70
2023/06/12 02:17:02;;;;;;;6.43;5.43;;;16.10;56.90;;;-147.95;100.00;61948.03;5025351;28;20985;-72
2023/06/12 02:19:30;;;;;;;7.70;5.47;;;16.00;57.00;;;-147.95;100.00;61948.03;5017494;28;21234;-72
2023/06/12 02:21:59;;;;;;;6.83;5.10;;;15.90;57.20;;;-147.95;100.00;61948.03;5026182;28;20457;-71
2023/06/12 02:24:29;;;;;;;6.87;5.90;;;15.80;57.40;;;-147.95;100.00;61948.03;5024991;28;20462;-72
2023/06/12 02:26:56;;;;;;;7.87;6.10;;;15.80;57.70;;;-147.95;100.00;61948.03;5023975;28;20454;-70
2023/06/12 02:29:24;;;;;;;5.57;5.03;;;15.70;58.00;;;-147.95;100.00;61948.03;5027080;28;20500;-71
2023/06/12 02:31:51;;;;;;;7.00;5.73;;;15.70;58.30;;;-147.95;100.00;61948.03;5025813;28;20466;-70
2023/06/12 02:34:18;;;;;;;6.60;6.00;;;15.60;58.50;;;-147.95;100.00;61948.03;5026864;28;20489;-71
2023/06/12 02:36:46;;;;;;;5.40;4.90;;;15.60;58.70;;;-147.95;100.00;61948.03;5025535;28;20478;-71
2023/06/12 02:39:16;;;;;;;6.50;5.83;;;15.50;58.90;;;-147.95;100.00;61948.03;5026584;28;20545;-72
2023/06/12 02:41:45;;;;;;;6.40;5.60;;;15.50;59.10;;;-147.95;100.00;61948.03;5025833;28;20462;-71
2023/06/12 02:44:12;;;;;;;7.13;6.53;;;15.50;59.40;;;-147.95;100.00;61948.03;5026632;28;20492;-71
2023/06/12 02:46:52;;;;;;;7.20;6.40;;;15.50;59.70;;;-147.95;100.00;61948.03;5025563;28;20461;-71
2023/06/12 02:49:21;;;;;;;6.10;5.50;;;15.50;59.80;;;-147.95;100.00;61948.03;5026659;28;20457;-72
2023/06/12 02:51:49;;;;;;;6.40;5.73;;;15.50;59.90;;;-147.95;100.00;61948.03;5024444;28;21021;-71
2023/06/12 02:54:19;;;;;;;6.60;5.90;;;15.40;60.30;;;-147.95;100.00;61948.03;5026263;28;20472;-72
2023/06/12 02:56:47;;;;;;;6.43;5.73;;;15.40;60.60;;;-147.95;100.00;61948.03;5007979;28;20982;-72
2023/06/12 02:59:15;;;;;;;6.33;5.73;;;15.30;60.90;;;-147.95;100.00;61948.03;5024958;28;21036;-70
2023/06/12 03:01:44;;;;;;;6.30;5.73;;;15.30;61.50;;;-147.95;100.00;61948.03;5024140;28;20524;-71
2023/06/12 03:04:12;;;;;;;6.80;6.10;;;15.20;61.70;;;-147.95;100.00;61948.03;5026211;28;20592;-71
2023/06/12 03:06:41;;;;;;;6.93;6.23;;;15.20;62.10;;;-147.95;100.00;61948.03;5025511;28;20458;-73
2023/06/12 03:09:09;;;;;;;6.83;6.20;;;15.10;62.30;;;-147.95;100.00;61948.03;5025756;28;20542;-70
2023/06/12 03:11:38;;;;;;;8.03;6.63;;;15.10;62.80;;;-147.95;100.00;61948.03;5025323;28;21340;-72
2023/06/12 03:14:05;;;;;;;7.33;6.60;;;15.10;63.10;;;-147.95;100.00;61948.03;5024332;28;20462;-71
2023/06/12 03:16:33;;;;;;;6.00;5.40;;;15.00;63.40;;;-147.95;100.00;61948.03;5026942;28;20565;-72
2023/06/12 03:19:00;;;;;;;6.63;6.00;;;14.90;63.60;;;-147.95;100.00;61948.03;5029527;28;20465;-71
2023/06/12 03:21:27;;;;;;;8.40;6.40;;;14.90;64.00;;;-147.95;100.00;61948.03;5011589;28;20531;-72
2023/06/12 03:23:56;;;;;;;6.97;6.23;;;14.90;64.20;;;-147.95;100.00;61948.03;5026217;28;20456;-71
2023/06/12 03:26:23;;;;;;;8.50;6.07;;;14.90;64.70;;;-147.95;100.00;61948.03;5027903;28;20516;-72
2023/06/12 03:28:52;;;;;;;6.33;5.70;;;14.90;64.90;;;-147.95;100.00;61948.03;5027639;28;20460;-72
2023/06/12 03:31:20;;;;;;;6.47;5.90;;;14.90;65.10;;;-147.95;100.00;61948.03;5029028;28;20930;-70
2023/06/12 03:33:47;;;;;;;6.80;6.20;;;14.90;65.40;;;-147.95;100.00;61948.03;5027819;28;20861;-71
2023/06/12 03:36:16;;;;;;;9.70;6.07;;;14.90;65.60;;;-147.95;100.00;61948.03;5007100;28;20935;-71
2023/06/12 03:38:44;;;;;;;6.40;5.73;;;14.90;65.70;;;-147.95;100.00;61948.03;5025706;28;20490;-72
2023/06/12 03:41:11;;;;;;;7.37;5.87;;;15.00;65.90;;;-147.95;100.00;61948.03;5028540;28;20937;-71
2023/06/12 03:43:38;;;;;;;6.50;5.83;;;15.00;66.00;;;-147.95;100.00;61948.03;5029350;28;20472;-71
2023/06/12 03:46:09;;;;;;;6.23;5.60;;;15.10;66.10;;;-147.95;100.00;61948.03;5028214;28;21137;-71
2023/06/12 03:48:36;;;;;;;6.30;5.40;;;15.10;66.10;;;-147.95;100.00;61948.03;5028822;28;20482;-72
2023/06/12 03:51:04;;;;;;;6.60;5.90;;;15.20;66.10;;;-147.95;100.00;61948.03;5028428;28;20456;-73
2023/06/12 03:53:32;;;;;;;6.13;5.50;;;15.20;66.20;;;-147.95;100.00;61948.03;5027697;28;20972;-70
2023/06/12 03:55:59;;;;;;;7.40;5.60;;;15.20;66.20;;;-147.95;100.00;61948.03;5028051;28;20473;-71
2023/06/12 03:58:27;;;;;;;7.03;5.43;;;15.30;66.40;;;-147.95;100.00;61948.03;5010842;28;20535;-70
2023/06/12 04:00:54;;;;;;;6.63;5.93;;;15.40;66.30;;;-147.95;100.00;61948.03;5027226;28;20464;-73
2023/06/12 04:03:24;;;;;;;6.60;6.00;;;15.50;66.20;;;-147.95;100.00;61948.03;5010881;28;20837;-71
2023/06/12 04:05:51;;;;;;;5.90;5.40;;;15.60;65.80;;;-147.95;100.00;61948.03;5028250;28;20986;-72
2023/06/12 04:08:19;;;;;;;6.63;6.03;;;16.10;65.10;;;-147.95;100.00;61948.03;5028259;28;20949;-72
2023/06/12 04:10:47;;;;;;;6.27;5.67;;;16.90;63.70;;;-147.95;100.00;61948.03;5028365;28;20454;-70
2023/06/12 04:13:14;;;;;;;6.00;5.40;;;17.60;61.80;;;-147.95;100.00;61948.03;5028489;28;20946;-71
2023/06/12 04:15:41;;;;;;;8.67;6.83;;;18.00;60.40;;;-147.95;100.00;61948.03;5028115;28;21044;-71
2023/06/12 04:18:09;;;;;;;7.17;5.40;;;18.00;59.70;;;-147.95;100.00;61948.03;5026822;28;20478;-72
2023/06/12 04:20:38;;;;;;;7.60;5.90;;;18.10;59.50;;;-147.95;100.00;61948.03;5010046;28;21009;-72
2023/06/12 04:23:11;;;;;;;6.57;5.93;;;18.40;59.10;;;-147.95;100.00;61948.03;5025602;28;20466;-71
2023/06/12 04:25:39;;;;;;;6.33;5.43;;;18.50;58.10;;;-147.95;100.00;61948.03;5026800;28;20909;-73
2023/06/12 04:28:07;;;;;;;6.20;5.60;;;18.40;58.50;;;-147.95;100.00;61948.03;5026954;28;20954;-71
2023/06/12 04:30:35;;;;;;;6.83;6.10;;;18.80;58.00;;;-147.95;100.00;61948.03;5027901;28;21040;-74
2023/06/12 04:33:04;;;;;;;6.20;5.60;;;19.20;57.20;;;-147.95;100.00;61948.03;5028570;28;20458;-71
2023/06/12 04:35:33;;;;;;;7.77;6.47;;;19.70;56.40;;;-147.95;100.00;61948.03;5026328;28;20459;-72
2023/06/12 04:38:05;;;;;;;6.30;5.70;;;20.20;55.60;;;-147.95;100.00;61948.03;5027924;28;20485;-71
2023/06/12 04:40:36;;;;;;;6.10;5.50;;;20.30;54.80;;;-147.95;100.00;61948.03;5027985;28;20486;-71
2023/06/12 04:43:05;;;;;;;6.13;5.53;;;20.40;54.80;;;-147.95;100.00;61948.03;5027222;28;20450;-72
2023/06/12 04:45:34;;;;;;;6.27;5.67;;;20.70;54.30;;;-147.95;100.00;61948.03;5027297;28;20605;-72
2023/06/12 04:48:02;;;;;;;7.13;6.13;;;20.60;53.80;;;-147.95;100.00;61948.03;5027720;28;20868;-72
2023/06/12 04:50:30;;;;;;;6.60;5.70;;;21.10;53.90;;;-147.95;100.00;61948.03;5026238;28;20558;-71
2023/06/12 04:52:59;;;;;;;6.67;5.73;;;21.80;52.70;;;-147.95;100.00;61948.03;5020679;28;20469;-71
2023/06/12 04:55:28;;;;;;;6.10;5.50;;;21.80;52.00;;;-147.95;100.00;61948.03;5027431;28;20542;-72
2023/06/12 04:57:55;;;;;;;6.57;5.97;;;21.50;52.10;;;-147.95;100.00;61948.03;5025973;28;20474;-72
2023/06/12 05:00:23;;;;;;;5.87;5.37;;;21.60;52.20;;;-147.95;100.00;61948.03;5027708;28;20462;-70
2023/06/12 05:02:52;;;;;;;7.20;6.33;;;22.30;51.60;;;-147.95;100.00;61948.03;5027989;28;20470;-72
2023/06/12 05:05:20;;;;;;;6.30;5.33;;;21.70;51.40;;;-147.95;100.00;61948.03;5027238;28;20478;-72
2023/06/12 05:07:48;;;;;;;11.00;5.87;;;21.40;51.50;;;-147.95;100.00;61948.03;5027229;28;20481;-70
2023/06/12 05:10:16;;;;;;;5.83;5.30;;;21.50;51.90;;;-147.95;100.00;61948.03;5025927;28;20552;-72
2023/06/12 05:12:45;;;;;;;6.90;5.90;;;21.70;51.60;;;-147.95;100.00;61948.03;5027765;28;20471;-71
2023/06/12 05:15:14;;;;;;;5.80;5.27;;;21.80;51.60;;;-147.95;100.00;61948.03;5026961;28;20468;-71
2023/06/12 05:17:41;;;;;;;6.67;6.07;;;22.10;51.20;;;-147.95;100.00;61948.03;5025963;28;20476;-71
2023/06/12 05:20:09;;;;;;;5.90;5.40;;;22.30;51.10;;;-147.95;100.00;61948.03;5027087;28;20463;-72
2023/06/12 05:22:37;;;;;;;6.93;6.27;;;22.70;51.10;;;-147.95;100.00;61948.03;5027541;28;20451;-72
2023/06/12 05:25:05;;;;;;;6.10;5.60;;;23.20;50.20;;;-147.95;100.00;61948.03;5026837;28;20466;-71
2023/06/12 05:27:32;;;;;;;6.70;6.00;;;23.40;50.10;;;-147.95;100.00;61948.03;4992926;28;20987;-74
2023/06/12 05:30:01;;;;;;;6.20;5.70;;;23.60;49.80;;;-147.95;100.00;61948.03;5027702;28;20473;-72
2023/06/12 05:32:28;;;;;;;5.97;5.37;;;23.60;49.30;;;-147.95;100.00;61948.03;5027195;28;20510;-73
2023/06/12 05:34:56;;;;;;;5.93;5.40;;;23.80;49.50;;;-147.95;100.00;61948.03;5009645;28;20448;-72
2023/06/12 05:37:23;;;;;;;6.20;5.60;;;24.30;49.20;;;-147.95;100.00;61948.03;5025338;28;21182;-72
2023/06/12 05:39:52;;;;;;;7.00;6.30;;;24.80;48.80;;;-147.95;100.00;61948.03;5027219;28;20528;-73
2023/06/12 05:42:19;;;;;;;6.47;5.90;;;24.40;48.30;;;-147.95;100.00;61948.03;5025246;28;20454;-72
2023/06/12 05:44:46;;;;;;;7.00;6.30;;;23.50;48.20;;;-147.95;100.00;61948.03;5010288;28;20463;-72
2023/06/12 05:47:15;;;;;;;7.43;6.20;;;22.80;49.00;;;-147.95;100.00;61948.03;5027142;28;20517;-71
2023/06/12 05:49:43;;;;;;;6.70;6.00;;;23.00;49.10;;;-147.95;100.00;61948.03;5008985;28;20509;-70
2023/06/12 05:52:11;;;;;;;6.50;5.70;;;23.00;49.40;;;-147.95;100.00;61948.03;5027326;28;20454;-72
2023/06/12 05:54:39;;;;;;;6.77;5.43;;;23.20;48.90;;;-147.95;100.00;61948.03;5027971;28;20468;-72
2023/06/12 05:57:07;;;;;;;5.43;4.93;;;23.70;49.00;;;-147.95;100.00;61948.03;5030836;28;20463;-72
2023/06/12 05:59:34;;;;;;;7.13;6.00;;;23.80;48.80;;;-147.95;100.00;61948.03;5011028;28;20485;-71
2023/06/12 06:02:02;;;;;;;6.33;5.10;;;24.00;48.40;;;-147.95;100.00;61948.03;5023752;28;20453;-72
2023/06/12 06:04:31;;;;;;;6.93;6.27;;;24.60;48.40;;;-147.95;100.00;61948.03;5042313;28;20453;-75
2023/06/12 06:06:59;;;;;;;6.50;5.90;;;24.30;48.00;;;-147.95;100.00;61948.03;5022505;28;20492;-75
2023/06/12 06:09:27;;;;;;;6.33;5.73;;;24.10;48.20;;;-147.95;100.00;61948.03;5024980;28;20457;-73
2023/06/12 06:11:54;;;;;;;5.60;5.10;;;23.70;48.50;;;-147.95;100.00;61948.03;5026245;28;20557;-74
2023/06/12 06:14:23;;;;;;;6.03;5.50;;;23.90;48.20;;;-147.95;100.00;61948.03;5027416;28;20452;-77
2023/06/12 06:16:50;;;;;;;6.10;5.50;;;23.90;48.40;;;-147.95;100.00;61948.03;5024631;28;20552;-75
2023/06/12 06:19:17;;;;;;;6.70;6.10;;;23.50;48.30;;;-147.95;100.00;61948.03;5026408;28;20563;-75
2023/06/12 06:21:46;;;;;;;6.37;5.77;;;23.40;48.60;;;-147.95;100.00;61948.03;5026362;28;20465;-74
2023/06/12 06:24:13;;;;;;;5.93;5.33;;;23.60;49.00;;;-147.95;100.00;61948.03;5026001;28;20815;-75
2023/06/12 06:26:41;;;;;;;6.27;5.20;;;24.10;48.20;;;-147.95;100.00;61948.03;5026195;28;20463;-76
2023/06/12 06:29:08;;;;;;;7.10;6.40;;;24.00;48.50;;;-147.95;100.00;61948.03;5008622;28;20542;-76
2023/06/12 06:31:35;;;;;;;6.90;6.30;;;24.00;48.90;;;-147.95;100.00;61948.03;5008284;28;20467;-75
2023/06/12 06:34:02;;;;;;;7.40;5.90;;;23.30;49.20;;;-147.95;100.00;61948.03;5025456;28;20958;-73
2023/06/12 06:36:30;;;;;;;7.47;6.77;;;22.30;49.60;;;-147.95;100.00;61948.03;5026179;28;20478;-75
2023/06/12 06:38:59;;;;;;;6.37;5.77;;;21.40;50.60;;;-147.95;100.00;61948.03;5018249;28;20472;-76
2023/06/12 06:41:26;;;;;;;6.97;6.37;;;21.10;51.20;;;-147.95;100.00;61948.03;5026133;28;20524;-75
2023/06/12 06:43:54;;;;;;;7.63;6.40;;;20.90;52.10;;;-147.95;100.00;61948.03;5026870;28;20890;-75
2023/06/12 06:46:21;;;;;;;6.63;5.93;;;21.00;52.40;;;-147.95;100.00;61948.03;5026044;28;20460;-74
2023/06/12 06:48:48;;;;;;;7.07;6.20;;;21.00;52.30;;;-147.95;100.00;61948.03;5026257;28;20459;-76
2023/06/12 06:51:16;;;;;;;6.70;6.10;;;20.90;51.90;;;-147.95;100.00;61948.03;5028164;28;20448;-75
2023/06/12 06:53:43;;;;;;;5.77;5.27;;;20.90;52.30;;;-147.95;100.00;61948.03;5029443;28;20450;-73
2023/06/12 06:56:11;;;;;;;6.87;6.17;;;20.60;52.20;;;-147.95;100.00;61948.03;5028430;28;20865;-75
2023/06/12 06:58:39;;;;;;;8.37;6.53;;;20.60;52.60;;;-147.95;100.00;61948.03;5009767;28;20501;-74
2023/06/12 07:01:06;;;;;;;6.13;5.53;;;20.70;53.20;;;-147.95;100.00;61948.03;5026320;28;20498;-75
2023/06/12 07:03:34;;;;;;;8.00;6.93;;;20.80;52.70;;;-147.95;100.00;61948.03;5015631;28;20578;-74
2023/06/12 07:06:04;;;;;;;7.77;6.00;;;20.90;52.90;;;-147.95;100.00;61948.03;5029667;28;20465;-76
2023/06/12 07:08:31;;;;;;;6.97;6.27;;;21.00;53.40;;;-147.95;100.00;61948.03;5030021;28;20816;-74
2023/06/12 07:10:58;;;;;;;6.23;5.20;;;21.10;52.90;;;-147.95;100.00;61948.03;5028941;28;20505;-75
2023/06/12 07:13:27;;;;;;;6.83;6.23;;;21.10;53.20;;;-147.95;100.00;61948.03;5030374;28;20531;-74
2023/06/12 07:15:54;;;;;;;6.03;5.43;;;21.30;52.50;;;-147.95;100.00;61948.03;5011866;28;20579;-73
2023/06/12 07:18:21;;;;;;;7.07;6.37;;;21.20;52.80;;;-147.95;100.00;61948.03;5028546;28;21042;-75
2023/06/12 07:20:49;;;;;;;7.53;6.80;;;21.20;53.00;;;-147.95;100.00;61948.03;5012261;28;20464;-77
2023/06/12 07:23:17;;;;;;;7.20;6.57;;;21.30;53.00;;;-147.95;100.00;61948.03;5029016;28;20447;-76
2023/06/12 07:25:44;;;;;;;6.17;5.63;;;21.60;52.90;;;-147.95;100.00;61948.03;5029428;28;20986;-75
2023/06/12 07:28:11;;;;;;;6.57;6.00;;;21.50;52.50;;;-147.95;100.00;61948.03;5011737;28;20835;-75
2023/06/12 07:30:40;;;;;;;6.40;5.80;;;21.60;52.70;;;-147.95;100.00;61948.03;5029218;28;20462;-75
2023/06/12 07:33:07;;;;;;;6.30;5.70;;;21.60;52.60;;;-147.95;100.00;61948.03;5012074;28;20482;-76
2023/06/12 07:35:35;;;;;;;6.40;5.80;;;21.50;52.90;;;-147.95;100.00;61948.03;5028755;28;20911;-76
2023/06/12 07:38:03;;;;;;;5.97;5.43;;;21.50;53.00;;;-147.95;100.00;61948.03;5028285;28;20454;-75
2023/06/12 07:40:30;;;;;;;6.23;5.70;;;21.80;52.90;;;-147.95;100.00;61948.03;5012403;28;20482;-75
2023/06/12 07:42:58;;;;;;;5.13;4.73;;;22.30;53.00;;;-147.95;100.00;61948.03;5030346;28;20456;-78
2023/06/12 07:45:26;;;;;;;7.03;6.40;;;22.60;52.40;;;-147.95;100.00;61948.03;5031533;28;20459;-74
2023/06/12 07:47:57;;;;;;;6.23;5.73;;;22.50;51.60;;;-147.95;100.00;61948.03;5029386;28;20464;-74
2023/06/12 07:50:24;;;;;;;6.87;6.20;;;22.30;51.70;;;-147.95;100.00;61948.03;5029342;28;20464;-75
2023/06/12 07:52:52;;;;;;;6.30;5.67;;;22.50;52.20;;;-147.95;100.00;61948.03;5029369;28;21008;-74
2023/06/12 07:55:20;;;;;;;6.37;5.77;;;22.50;51.60;;;-147.95;100.00;61948.03;5029242;28;20516;-75
2023/06/12 07:57:49;;;;;;;7.23;5.60;;;22.50;51.20;;;-147.95;100.00;61948.03;5011415;28;20554;-76
2023/06/12 08:00:18;;;;;;;6.43;5.83;;;22.40;51.60;;;-147.95;100.00;61948.03;5028983;28;21037;-79
2023/06/12 08:02:46;;;;;;;5.90;5.40;;;22.70;52.30;;;-147.95;100.00;61948.03;5028624;28;20468;-75
2023/06/12 08:05:15;;;;;;;5.97;5.47;;;23.00;51.80;;;-147.95;100.00;61948.03;5010830;28;20831;-75
2023/06/12 08:07:42;;;;;;;5.90;5.30;;;23.00;51.10;;;-147.95;100.00;61948.03;5028500;28;20468;-74
2023/06/12 08:10:10;;;;;;;5.20;4.73;;;22.90;50.60;;;-147.95;100.00;61948.03;5027277;28;20571;-76
2023/06/12 08:12:37;;;;;;;5.47;4.97;;;22.90;49.90;;;-147.95;100.00;61948.03;5011074;28;20453;-76
2023/06/12 08:15:07;;;;;;;6.43;5.93;;;22.80;50.30;;;-147.95;100.00;61948.03;5010784;28;20466;-75
2023/06/12 08:17:36;;;;;;;6.17;5.67;;;22.80;49.70;;;-147.95;100.00;61948.03;5027345;28;20514;-76
2023/06/12 08:20:08;;;;;;;5.10;4.70;;;22.90;50.20;;;-147.95;100.00;61948.03;5028670;28;20486;-75
2023/06/12 08:22:37;;;;;;;5.50;5.00;;;23.00;50.00;;;-147.95;100.00;61948.03;5029096;28;20570;-76
2023/06/12 08:25:06;;;;;;;6.10;5.50;;;23.20;49.60;;;-147.95;100.00;61948.03;5028213;28;20472;-75
2023/06/12 08:27:34;;;;;;;4.93;4.53;;;23.00;49.10;;;-147.95;100.00;61948.03;5010684;28;20464;-75
2023/06/12 08:30:02;;;;;;;5.97;5.20;;;23.00;49.10;;;-147.95;100.00;61948.03;5027347;28;20440;-75
2023/06/12 08:32:31;;;;;;;5.87;5.37;;;22.80;49.20;;;-147.95;100.00;61948.03;5011566;28;20462;-77
2023/06/12 08:34:58;;;;;;;5.20;4.70;;;22.70;48.40;;;-147.95;100.00;61948.03;4987021;28;20461;-76
2023/06/12 08:37:26;;;;;;;6.30;4.43;;;22.80;48.70;;;-147.95;100.00;61948.03;5027720;28;20461;-77
2023/06/12 08:39:54;;;;;;;5.13;4.47;;;22.90;48.30;;;-147.95;100.00;61948.03;5011127;28;20512;-75
2023/06/12 08:42:22;;;;;;;5.67;5.00;;;22.90;47.90;;;-147.95;100.00;61948.03;5010679;28;21003;-76
2023/06/12 08:45:00;;;;;;;6.27;5.67;;;22.80;47.50;;;-147.95;100.00;61948.03;5028972;28;20489;-74
2023/06/12 08:47:28;;;;;;;7.43;5.23;;;22.90;47.60;;;-147.95;100.00;61948.03;5028315;28;20503;-75
2023/06/12 08:49:57;;;;;;;4.77;4.37;;;22.70;47.30;;;-147.95;100.00;61948.03;5027496;28;20508;-76
2023/06/12 08:52:25;;;;;;;5.20;4.17;;;22.70;46.90;;;-147.95;100.00;61948.03;5026617;28;20466;-76
2023/06/12 08:54:56;;;;;;;6.07;5.20;;;22.80;46.50;;;-147.95;100.00;61948.03;5010677;28;20527;-75
2023/06/12 08:57:23;;;;;;;4.93;4.50;;;23.00;46.10;;;-147.95;100.00;61948.03;5028616;28;20546;-75
2023/06/12 08:59:50;;;;;;;5.70;5.20;;;23.00;46.20;;;-147.95;100.00;61948.03;5028514;28;20545;-74
2023/06/12 09:02:20;;;;;;;5.20;4.70;;;22.90;46.10;;;-147.95;100.00;61948.03;5028002;28;21004;-75
2023/06/12 09:04:57;;;;;;;5.53;4.97;;;22.70;46.20;;;-147.95;100.00;61948.03;5010319;28;20456;-75
2023/06/12 09:07:26;;;;;;;5.17;4.70;;;22.80;46.20;;;-147.95;100.00;61948.03;5026650;28;21020;-75
2023/06/12 09:09:55;;;;;;;5.13;4.63;;;23.00;46.50;;;-147.95;100.00;61948.03;5028107;28;20534;-74
2023/06/12 09:12:23;;;;;;;4.90;4.50;;;23.20;46.50;;;-147.95;100.00;61948.03;5009083;28;20902;-76
2023/06/12 09:14:50;;;;;;;5.13;4.50;;;23.20;46.70;;;-147.95;100.00;61948.03;5026851;28;20497;-76
2023/06/12 09:17:19;;;;;;;5.50;4.90;;;23.30;46.60;;;-147.95;100.00;61948.03;5026990;28;21267;-75
2023/06/12 09:19:48;;;;;;;5.60;5.10;;;23.00;46.30;;;-147.95;100.00;61948.03;5032485;28;20542;-75
2023/06/12 09:22:16;;;;;;;4.80;4.40;;;23.00;46.50;;;-147.95;100.00;61948.03;5031895;28;20868;-75
2023/06/12 09:24:43;;;;;;;5.37;4.97;;;23.20;46.70;;;-147.95;100.00;61948.03;5032417;28;20469;-77
2023/06/12 09:27:12;;;;;;;4.93;4.47;;;23.00;46.30;;;-147.95;100.00;61948.03;5027001;28;20472;-74
2023/06/12 09:29:40;;;;;;;5.00;4.50;;;22.90;46.30;;;-147.95;100.00;61948.03;5030806;28;20485;-76
2023/06/12 09:32:16;;;;;;;5.23;4.73;;;22.90;46.70;;;-147.95;100.00;61948.03;5033963;28;20455;-76
2023/06/12 09:34:47;;;;;;;5.90;5.40;;;23.00;46.40;;;-147.95;100.00;61948.03;5038129;28;20550;-74
2023/06/12 09:37:16;;;;;;;4.77;4.37;;;23.20;47.20;;;-147.95;100.00;61948.03;5036534;28;20545;-75
2023/06/12 09:39:44;;;;;;;5.53;4.57;;;23.30;46.30;;;-147.95;100.00;61948.03;5038844;28;20481;-73
2023/06/12 09:42:16;;;;;;;4.90;4.50;;;23.20;45.80;;;-147.95;100.00;61948.03;5035671;28;20464;-75
2023/06/12 09:44:44;;;;;;;7.27;4.87;;;23.20;45.80;;;-147.95;100.00;61948.03;5020517;28;20546;-74
2023/06/12 09:47:12;;;;;;;4.90;4.47;;;23.40;45.80;;;-147.95;100.00;61948.03;5038422;28;20489;-75
2023/06/12 09:49:40;;;;;;;5.10;4.70;;;23.40;45.20;;;-147.95;100.00;61948.03;5043604;28;20474;-75
2023/06/12 09:52:08;;;;;;;6.77;4.93;;;23.40;45.40;;;-147.95;100.00;61948.03;5038552;28;20450;-75
2023/06/12 09:54:37;;;;;;;5.50;5.00;;;23.50;45.90;;;-147.95;100.00;61948.03;5039172;28;20492;-73
2023/06/12 09:57:08;;;;;;;5.10;4.70;;;23.50;45.80;;;-147.95;100.00;61948.03;5039415;28;20468;-75
2023/06/12 09:59:37;;;;;;;5.30;4.90;;;23.50;45.50;;;-147.95;100.00;61948.03;5041590;28;20532;-76
2023/06/12 10:02:10;;;;;;;5.40;4.90;;;23.60;45.30;;;-147.95;100.00;61948.03;5016986;28;20461;-74
2023/06/12 10:04:48;;;;;;;5.07;4.67;;;23.60;45.40;;;-147.95;100.00;61948.03;5022241;28;20458;-75
2023/06/12 10:07:21;;;;;;;5.20;4.80;;;23.80;45.50;;;-147.95;100.00;61948.03;5038365;28;20463;-76